Birmingham, United Kingdom

2:23 AM BST on July 06, 2015 (GMT +0100)
Warstock, Birmingham | | Change Station
CLOSE
Current Station
Personal Weather Station
Location: Birmingham, ENGLAND
Elevation: 502 ft
Nearby Weather Stations

Elev 502 ft 52.41 °N, 1.87 °W | Updated 2 seconds ago

Clear
Clear
51.9 °F
Feels Like 51.9 °F
N
1.5
Wind Variable Wind from SSW
Gusts 1.5 mph

Today
High -- | Low -- °F
--% Chance of Precip.
Yesterday
High -- | Low -- °F
Precip. -- in
4:53 AM 9:30 PM
Waning Gibbous, 80% visible
Pressure 30.06 in
Visibility -9999.0 miles
Clouds
Dew Point 48 °F
Humidity 86%
Rainfall 0.00 in
Snow Depth Not available.
UV Not available.
Pollen Not available.
Air Quality Not available.
Flu Activity Not available.
METAR EGBB 060050Z 23004KT 180V270 CAVOK 13/10 Q1018

More Conditions Fewer Conditions

Pressure 30.06 in
Visibility -9999.0 miles
Clouds
Dew Point 48 °F
Humidity 86%
Rainfall 0.00 in
Snow Depth Not available.
UV Not available.
Pollen Not available.
Air Quality Not available.
Flu Activity Not available.
METAR EGBB 060050Z 23004KT 180V270 CAVOK 13/10 Q1018

More Conditions Fewer Conditions

10-Day Weather Forecast

×

Almanac

Astronomy

Jul. 06, 2015 Rise Set
Actual Time
Civil Twilight
Nautical Twilight
Astronomical Twilight
Moon
Length of Visible Light
Length of Day
Tomorrow will be .
, % of the Moon is Illuminated

Today's Extremes

Country Highs Country Lows

Community

WunderPhotos

Upload Photos

1,835,437 photos uploaded!

WunderBlogs® & News

Nearby

Air Quality

  Air Quality AQ Index Pollutant
Not available.

Snow Depth

Station Depth Elevation

Earthquake Activity

City Distance Mag. Time & Date
Minimum magnitude displayed is 2.5.

Coastal Water Temperatures

Place Temperature

Stations

Nearby Weather Stations

Station Location Temp. Windchill Dew Point Humidity Wind Precip. Elev Updated Type